sensor_id;sensor_type;location;lat;lon;timestamp;P1;durP1;ratioP1;P2;durP2;ratioP2
37303;SDS011;23188;51.188;16.374;2022-10-16T00:02:38;18.87;;;14.83;;
37303;SDS011;23188;51.188;16.374;2022-10-16T00:06:39;23.35;;;15.43;;
37303;SDS011;23188;51.188;16.374;2022-10-16T00:10:41;17.25;;;14.63;;
37303;SDS011;23188;51.188;16.374;2022-10-16T00:14:42;16.25;;;14.03;;
37303;SDS011;23188;51.188;16.374;2022-10-16T00:18:44;15.50;;;13.60;;
37303;SDS011;23188;51.188;16.374;2022-10-16T00:22:45;14.87;;;11.97;;
37303;SDS011;23188;51.188;16.374;2022-10-16T00:26:46;16.45;;;13.08;;
37303;SDS011;23188;51.188;16.374;2022-10-16T00:30:50;15.75;;;13.43;;
37303;SDS011;23188;51.188;16.374;2022-10-16T00:34:51;14.23;;;12.73;;
37303;SDS011;23188;51.188;16.374;2022-10-16T00:38:55;15.43;;;13.05;;
37303;SDS011;23188;51.188;16.374;2022-10-16T00:42:59;13.77;;;11.57;;
37303;SDS011;23188;51.188;16.374;2022-10-16T00:47:00;17.20;;;13.28;;
37303;SDS011;23188;51.188;16.374;2022-10-16T00:51:01;33.60;;;13.90;;
37303;SDS011;23188;51.188;16.374;2022-10-16T00:55:03;13.70;;;11.45;;
37303;SDS011;23188;51.188;16.374;2022-10-16T00:59:10;13.72;;;12.20;;
37303;SDS011;23188;51.188;16.374;2022-10-16T01:03:23;11.38;;;9.88;;
37303;SDS011;23188;51.188;16.374;2022-10-16T01:07:38;14.73;;;13.18;;
37303;SDS011;23188;51.188;16.374;2022-10-16T01:12:04;12.90;;;10.82;;
37303;SDS011;23188;51.188;16.374;2022-10-16T01:20:38;12.88;;;11.25;;
37303;SDS011;23188;51.188;16.374;2022-10-16T01:24:44;11.55;;;9.40;;
37303;SDS011;23188;51.188;16.374;2022-10-16T01:29:01;10.63;;;9.35;;
37303;SDS011;23188;51.188;16.374;2022-10-16T01:33:09;14.47;;;11.33;;
37303;SDS011;23188;51.188;16.374;2022-10-16T01:37:15;12.78;;;10.20;;
37303;SDS011;23188;51.188;16.374;2022-10-16T01:41:22;12.73;;;10.70;;
37303;SDS011;23188;51.188;16.374;2022-10-16T01:45:32;13.08;;;11.75;;
37303;SDS011;23188;51.188;16.374;2022-10-16T01:49:36;14.07;;;12.25;;
37303;SDS011;23188;51.188;16.374;2022-10-16T01:53:41;14.95;;;11.20;;
37303;SDS011;23188;51.188;16.374;2022-10-16T01:57:47;14.85;;;13.30;;
37303;SDS011;23188;51.188;16.374;2022-10-16T02:01:54;14.10;;;12.13;;
37303;SDS011;23188;51.188;16.374;2022-10-16T02:06:02;12.98;;;11.40;;
37303;SDS011;23188;51.188;16.374;2022-10-16T02:10:03;12.20;;;10.80;;
37303;SDS011;23188;51.188;16.374;2022-10-16T02:14:05;11.30;;;10.03;;
37303;SDS011;23188;51.188;16.374;2022-10-16T02:18:08;13.40;;;11.43;;
37303;SDS011;23188;51.188;16.374;2022-10-16T02:22:15;13.18;;;10.18;;
37303;SDS011;23188;51.188;16.374;2022-10-16T02:26:17;13.98;;;12.37;;
37303;SDS011;23188;51.188;16.374;2022-10-16T02:34:48;12.85;;;10.80;;
37303;SDS011;23188;51.188;16.374;2022-10-16T02:38:50;10.75;;;9.48;;
37303;SDS011;23188;51.188;16.374;2022-10-16T02:42:53;11.25;;;10.15;;
37303;SDS011;23188;51.188;16.374;2022-10-16T02:46:55;12.60;;;10.60;;
37303;SDS011;23188;51.188;16.374;2022-10-16T02:50:56;12.90;;;10.55;;
37303;SDS011;23188;51.188;16.374;2022-10-16T02:54:57;12.23;;;10.78;;
37303;SDS011;23188;51.188;16.374;2022-10-16T02:58:58;13.00;;;9.95;;
37303;SDS011;23188;51.188;16.374;2022-10-16T03:02:59;11.28;;;10.18;;
37303;SDS011;23188;51.188;16.374;2022-10-16T03:07:00;13.72;;;11.55;;
37303;SDS011;23188;51.188;16.374;2022-10-16T03:11:02;13.85;;;12.05;;
37303;SDS011;23188;51.188;16.374;2022-10-16T03:15:03;12.90;;;10.48;;
37303;SDS011;23188;51.188;16.374;2022-10-16T03:19:05;12.15;;;10.60;;
37303;SDS011;23188;51.188;16.374;2022-10-16T03:23:07;10.60;;;9.53;;
37303;SDS011;23188;51.188;16.374;2022-10-16T03:27:08;10.38;;;9.08;;
37303;SDS011;23188;51.188;16.374;2022-10-16T03:31:09;10.35;;;8.28;;
37303;SDS011;23188;51.188;16.374;2022-10-16T03:35:11;11.50;;;10.08;;
37303;SDS011;23188;51.188;16.374;2022-10-16T03:39:12;7.97;;;7.17;;
37303;SDS011;23188;51.188;16.374;2022-10-16T03:43:13;7.80;;;6.87;;
37303;SDS011;23188;51.188;16.374;2022-10-16T03:47:14;6.80;;;5.75;;
37303;SDS011;23188;51.188;16.374;2022-10-16T03:51:15;8.85;;;7.15;;
37303;SDS011;23188;51.188;16.374;2022-10-16T03:55:16;8.20;;;6.22;;
37303;SDS011;23188;51.188;16.374;2022-10-16T03:59:18;6.42;;;5.83;;
37303;SDS011;23188;51.188;16.374;2022-10-16T04:03:19;6.78;;;6.12;;
37303;SDS011;23188;51.188;16.374;2022-10-16T04:07:20;6.97;;;6.20;;
37303;SDS011;23188;51.188;16.374;2022-10-16T04:11:21;7.00;;;6.03;;
37303;SDS011;23188;51.188;16.374;2022-10-16T04:15:23;6.08;;;5.45;;
37303;SDS011;23188;51.188;16.374;2022-10-16T04:19:25;5.97;;;5.05;;
37303;SDS011;23188;51.188;16.374;2022-10-16T04:23:26;5.20;;;4.67;;
37303;SDS011;23188;51.188;16.374;2022-10-16T04:27:27;4.95;;;4.40;;
37303;SDS011;23188;51.188;16.374;2022-10-16T04:31:29;5.58;;;4.62;;
37303;SDS011;23188;51.188;16.374;2022-10-16T04:35:30;4.70;;;4.30;;
37303;SDS011;23188;51.188;16.374;2022-10-16T04:39:31;3.62;;;2.90;;
37303;SDS011;23188;51.188;16.374;2022-10-16T04:43:32;3.83;;;3.45;;
37303;SDS011;23188;51.188;16.374;2022-10-16T04:47:34;4.80;;;3.60;;
37303;SDS011;23188;51.188;16.374;2022-10-16T04:51:35;2.37;;;2.17;;
37303;SDS011;23188;51.188;16.374;2022-10-16T04:55:36;2.83;;;2.47;;
37303;SDS011;23188;51.188;16.374;2022-10-16T04:59:38;3.60;;;2.77;;
37303;SDS011;23188;51.188;16.374;2022-10-16T05:03:39;3.87;;;2.58;;
37303;SDS011;23188;51.188;16.374;2022-10-16T05:07:40;2.70;;;2.50;;
37303;SDS011;23188;51.188;16.374;2022-10-16T05:11:41;3.35;;;2.02;;
37303;SDS011;23188;51.188;16.374;2022-10-16T05:15:46;2.70;;;2.17;;
37303;SDS011;23188;51.188;16.374;2022-10-16T05:19:48;2.22;;;2.02;;
37303;SDS011;23188;51.188;16.374;2022-10-16T05:23:50;2.15;;;1.37;;
37303;SDS011;23188;51.188;16.374;2022-10-16T05:27:51;1.87;;;1.67;;
37303;SDS011;23188;51.188;16.374;2022-10-16T05:31:52;2.35;;;2.10;;
37303;SDS011;23188;51.188;16.374;2022-10-16T05:35:54;3.22;;;2.62;;
37303;SDS011;23188;51.188;16.374;2022-10-16T05:39:55;1.65;;;1.55;;
37303;SDS011;23188;51.188;16.374;2022-10-16T05:43:56;3.58;;;1.72;;
37303;SDS011;23188;51.188;16.374;2022-10-16T05:47:57;1.55;;;1.40;;
37303;SDS011;23188;51.188;16.374;2022-10-16T05:51:58;3.02;;;2.37;;
37303;SDS011;23188;51.188;16.374;2022-10-16T05:55:59;5.50;;;3.40;;
37303;SDS011;23188;51.188;16.374;2022-10-16T06:00:02;6.10;;;3.52;;
37303;SDS011;23188;51.188;16.374;2022-10-16T06:04:04;2.98;;;2.02;;
37303;SDS011;23188;51.188;16.374;2022-10-16T06:08:05;2.77;;;1.98;;
37303;SDS011;23188;51.188;16.374;2022-10-16T06:12:06;3.37;;;2.90;;
37303;SDS011;23188;51.188;16.374;2022-10-16T06:16:08;4.05;;;2.00;;
37303;SDS011;23188;51.188;16.374;2022-10-16T06:20:10;3.42;;;2.87;;
37303;SDS011;23188;51.188;16.374;2022-10-16T06:24:12;3.12;;;2.92;;
37303;SDS011;23188;51.188;16.374;2022-10-16T06:28:13;4.10;;;3.70;;
37303;SDS011;23188;51.188;16.374;2022-10-16T06:32:15;4.33;;;3.92;;
37303;SDS011;23188;51.188;16.374;2022-10-16T06:36:17;4.22;;;3.83;;
37303;SDS011;23188;51.188;16.374;2022-10-16T06:40:19;4.42;;;3.98;;
37303;SDS011;23188;51.188;16.374;2022-10-16T06:44:20;6.05;;;5.45;;
37303;SDS011;23188;51.188;16.374;2022-10-16T06:48:21;5.30;;;4.80;;
37303;SDS011;23188;51.188;16.374;2022-10-16T06:52:24;4.90;;;4.25;;
37303;SDS011;23188;51.188;16.374;2022-10-16T06:56:25;5.90;;;4.65;;
37303;SDS011;23188;51.188;16.374;2022-10-16T07:00:28;6.67;;;5.00;;
37303;SDS011;23188;51.188;16.374;2022-10-16T07:04:29;4.47;;;4.08;;
37303;SDS011;23188;51.188;16.374;2022-10-16T07:08:31;4.30;;;3.90;;
37303;SDS011;23188;51.188;16.374;2022-10-16T07:12:37;5.87;;;5.28;;
37303;SDS011;23188;51.188;16.374;2022-10-16T07:16:38;4.53;;;4.12;;
37303;SDS011;23188;51.188;16.374;2022-10-16T07:20:39;4.22;;;3.58;;
37303;SDS011;23188;51.188;16.374;2022-10-16T07:24:40;4.28;;;3.75;;
37303;SDS011;23188;51.188;16.374;2022-10-16T07:28:42;5.22;;;4.55;;
37303;SDS011;23188;51.188;16.374;2022-10-16T07:32:44;5.50;;;3.90;;
37303;SDS011;23188;51.188;16.374;2022-10-16T07:36:47;4.53;;;4.15;;
37303;SDS011;23188;51.188;16.374;2022-10-16T07:41:01;6.97;;;4.75;;
37303;SDS011;23188;51.188;16.374;2022-10-16T07:45:06;5.40;;;4.60;;
37303;SDS011;23188;51.188;16.374;2022-10-16T07:49:08;6.03;;;5.10;;
37303;SDS011;23188;51.188;16.374;2022-10-16T07:53:10;6.22;;;4.53;;
37303;SDS011;23188;51.188;16.374;2022-10-16T07:57:12;6.83;;;5.45;;
37303;SDS011;23188;51.188;16.374;2022-10-16T08:01:15;5.42;;;4.92;;
37303;SDS011;23188;51.188;16.374;2022-10-16T08:05:18;9.23;;;5.62;;
37303;SDS011;23188;51.188;16.374;2022-10-16T08:09:20;6.42;;;5.92;;
37303;SDS011;23188;51.188;16.374;2022-10-16T08:13:21;6.28;;;5.08;;
37303;SDS011;23188;51.188;16.374;2022-10-16T08:17:22;9.50;;;8.50;;
37303;SDS011;23188;51.188;16.374;2022-10-16T08:21:23;6.58;;;5.90;;
37303;SDS011;23188;51.188;16.374;2022-10-16T08:25:25;7.92;;;7.08;;
37303;SDS011;23188;51.188;16.374;2022-10-16T08:29:26;6.87;;;6.17;;
37303;SDS011;23188;51.188;16.374;2022-10-16T08:33:27;9.63;;;5.75;;
37303;SDS011;23188;51.188;16.374;2022-10-16T08:37:29;7.62;;;6.80;;
37303;SDS011;23188;51.188;16.374;2022-10-16T08:41:50;7.47;;;6.60;;
37303;SDS011;23188;51.188;16.374;2022-10-16T08:50:11;6.65;;;5.92;;
37303;SDS011;23188;51.188;16.374;2022-10-16T08:58:40;8.55;;;7.00;;
37303;SDS011;23188;51.188;16.374;2022-10-16T09:02:52;7.90;;;7.10;;
37303;SDS011;23188;51.188;16.374;2022-10-16T09:07:24;6.85;;;6.15;;
37303;SDS011;23188;51.188;16.374;2022-10-16T09:24:53;5.05;;;4.62;;
37303;SDS011;23188;51.188;16.374;2022-10-16T09:28:57;5.42;;;4.92;;
37303;SDS011;23188;51.188;16.374;2022-10-16T09:32:58;7.28;;;5.87;;
37303;SDS011;23188;51.188;16.374;2022-10-16T09:37:00;4.75;;;4.35;;
37303;SDS011;23188;51.188;16.374;2022-10-16T09:41:13;4.78;;;4.30;;
37303;SDS011;23188;51.188;16.374;2022-10-16T09:45:22;4.08;;;3.67;;
37303;SDS011;23188;51.188;16.374;2022-10-16T09:49:25;4.20;;;3.72;;
37303;SDS011;23188;51.188;16.374;2022-10-16T09:53:43;3.35;;;3.05;;
37303;SDS011;23188;51.188;16.374;2022-10-16T09:57:50;3.27;;;3.00;;
37303;SDS011;23188;51.188;16.374;2022-10-16T10:01:55;3.20;;;2.90;;
37303;SDS011;23188;51.188;16.374;2022-10-16T10:05:57;4.08;;;2.98;;
37303;SDS011;23188;51.188;16.374;2022-10-16T10:09:58;5.58;;;2.85;;
37303;SDS011;23188;51.188;16.374;2022-10-16T10:18:24;2.62;;;2.40;;
37303;SDS011;23188;51.188;16.374;2022-10-16T10:49:22;2.75;;;2.15;;
37303;SDS011;23188;51.188;16.374;2022-10-16T10:58:14;2.75;;;2.55;;
37303;SDS011;23188;51.188;16.374;2022-10-16T11:02:33;2.50;;;2.20;;
37303;SDS011;23188;51.188;16.374;2022-10-16T11:06:46;2.65;;;2.20;;
37303;SDS011;23188;51.188;16.374;2022-10-16T11:11:10;2.77;;;2.58;;
37303;SDS011;23188;51.188;16.374;2022-10-16T11:15:35;2.35;;;2.00;;
37303;SDS011;23188;51.188;16.374;2022-10-16T11:23:57;3.17;;;1.90;;
37303;SDS011;23188;51.188;16.374;2022-10-16T11:28:14;2.35;;;2.10;;
37303;SDS011;23188;51.188;16.374;2022-10-16T11:32:28;2.35;;;2.15;;
37303;SDS011;23188;51.188;16.374;2022-10-16T11:36:48;2.10;;;1.70;;
37303;SDS011;23188;51.188;16.374;2022-10-16T11:41:00;1.07;;;0.95;;
37303;SDS011;23188;51.188;16.374;2022-10-16T11:49:37;0.95;;;0.85;;
37303;SDS011;23188;51.188;16.374;2022-10-16T11:54:02;0.88;;;0.42;;
37303;SDS011;23188;51.188;16.374;2022-10-16T11:58:44;2.15;;;1.95;;
37303;SDS011;23188;51.188;16.374;2022-10-16T12:07:39;4.75;;;2.25;;
37303;SDS011;23188;51.188;16.374;2022-10-16T12:11:40;4.35;;;2.35;;
37303;SDS011;23188;51.188;16.374;2022-10-16T12:15:41;3.58;;;2.67;;
37303;SDS011;23188;51.188;16.374;2022-10-16T12:19:42;2.30;;;2.10;;
37303;SDS011;23188;51.188;16.374;2022-10-16T12:23:47;2.83;;;2.17;;
37303;SDS011;23188;51.188;16.374;2022-10-16T12:27:59;2.42;;;2.22;;
37303;SDS011;23188;51.188;16.374;2022-10-16T12:32:04;2.70;;;1.72;;
37303;SDS011;23188;51.188;16.374;2022-10-16T12:36:14;1.77;;;1.65;;
37303;SDS011;23188;51.188;16.374;2022-10-16T12:40:24;2.30;;;2.10;;
37303;SDS011;23188;51.188;16.374;2022-10-16T12:44:32;2.62;;;2.12;;
37303;SDS011;23188;51.188;16.374;2022-10-16T12:48:37;3.00;;;2.67;;
37303;SDS011;23188;51.188;16.374;2022-10-16T12:52:40;6.22;;;2.95;;
37303;SDS011;23188;51.188;16.374;2022-10-16T12:56:46;3.77;;;3.22;;
37303;SDS011;23188;51.188;16.374;2022-10-16T13:00:54;3.00;;;2.67;;
37303;SDS011;23188;51.188;16.374;2022-10-16T13:05:08;2.70;;;2.50;;
37303;SDS011;23188;51.188;16.374;2022-10-16T13:09:45;3.45;;;2.72;;
37303;SDS011;23188;51.188;16.374;2022-10-16T13:14:09;3.35;;;2.72;;
37303;SDS011;23188;51.188;16.374;2022-10-16T13:23:23;2.62;;;2.42;;
37303;SDS011;23188;51.188;16.374;2022-10-16T13:27:40;3.58;;;3.22;;
37303;SDS011;23188;51.188;16.374;2022-10-16T13:32:06;4.53;;;3.10;;
37303;SDS011;23188;51.188;16.374;2022-10-16T13:36:23;3.42;;;2.85;;
37303;SDS011;23188;51.188;16.374;2022-10-16T13:40:28;4.10;;;2.87;;
37303;SDS011;23188;51.188;16.374;2022-10-16T13:44:31;5.53;;;2.62;;
37303;SDS011;23188;51.188;16.374;2022-10-16T13:48:36;3.58;;;3.20;;
37303;SDS011;23188;51.188;16.374;2022-10-16T13:52:38;3.65;;;2.80;;
37303;SDS011;23188;51.188;16.374;2022-10-16T13:56:39;3.87;;;2.67;;
37303;SDS011;23188;51.188;16.374;2022-10-16T14:00:51;3.95;;;3.62;;
37303;SDS011;23188;51.188;16.374;2022-10-16T14:04:59;3.72;;;3.00;;
37303;SDS011;23188;51.188;16.374;2022-10-16T14:09:06;3.77;;;3.25;;
37303;SDS011;23188;51.188;16.374;2022-10-16T14:13:14;2.72;;;2.08;;
37303;SDS011;23188;51.188;16.374;2022-10-16T14:17:19;2.62;;;2.40;;
37303;SDS011;23188;51.188;16.374;2022-10-16T14:21:23;2.42;;;2.22;;
37303;SDS011;23188;51.188;16.374;2022-10-16T14:25:29;3.05;;;2.52;;
37303;SDS011;23188;51.188;16.374;2022-10-16T14:29:33;2.25;;;1.95;;
37303;SDS011;23188;51.188;16.374;2022-10-16T14:33:35;4.62;;;1.72;;
37303;SDS011;23188;51.188;16.374;2022-10-16T14:37:37;2.15;;;1.95;;
37303;SDS011;23188;51.188;16.374;2022-10-16T14:41:41;3.42;;;2.98;;
37303;SDS011;23188;51.188;16.374;2022-10-16T14:45:50;4.35;;;3.95;;
37303;SDS011;23188;51.188;16.374;2022-10-16T14:49:55;3.67;;;3.30;;
37303;SDS011;23188;51.188;16.374;2022-10-16T14:53:57;4.53;;;3.12;;
37303;SDS011;23188;51.188;16.374;2022-10-16T14:57:59;5.35;;;3.58;;
37303;SDS011;23188;51.188;16.374;2022-10-16T15:02:00;3.25;;;2.95;;
37303;SDS011;23188;51.188;16.374;2022-10-16T15:06:35;8.27;;;5.33;;
37303;SDS011;23188;51.188;16.374;2022-10-16T15:10:40;12.30;;;8.78;;
37303;SDS011;23188;51.188;16.374;2022-10-16T15:14:44;9.75;;;6.83;;
37303;SDS011;23188;51.188;16.374;2022-10-16T15:18:45;7.25;;;5.37;;
37303;SDS011;23188;51.188;16.374;2022-10-16T15:22:46;8.63;;;7.00;;
37303;SDS011;23188;51.188;16.374;2022-10-16T15:26:47;10.23;;;6.60;;
37303;SDS011;23188;51.188;16.374;2022-10-16T15:30:49;16.55;;;11.88;;
37303;SDS011;23188;51.188;16.374;2022-10-16T15:34:53;23.57;;;16.27;;
37303;SDS011;23188;51.188;16.374;2022-10-16T15:38:54;15.58;;;11.22;;
37303;SDS011;23188;51.188;16.374;2022-10-16T15:42:56;13.28;;;9.88;;
37303;SDS011;23188;51.188;16.374;2022-10-16T15:46:57;10.18;;;8.60;;
37303;SDS011;23188;51.188;16.374;2022-10-16T15:50:59;6.55;;;4.83;;
37303;SDS011;23188;51.188;16.374;2022-10-16T15:55:05;6.70;;;3.98;;
37303;SDS011;23188;51.188;16.374;2022-10-16T15:59:11;5.15;;;3.45;;
37303;SDS011;23188;51.188;16.374;2022-10-16T16:03:12;6.62;;;3.70;;
37303;SDS011;23188;51.188;16.374;2022-10-16T16:07:14;15.43;;;8.73;;
37303;SDS011;23188;51.188;16.374;2022-10-16T16:11:15;11.10;;;8.38;;
37303;SDS011;23188;51.188;16.374;2022-10-16T16:15:21;16.55;;;14.03;;
37303;SDS011;23188;51.188;16.374;2022-10-16T16:19:22;36.80;;;24.40;;
37303;SDS011;23188;51.188;16.374;2022-10-16T16:23:24;26.20;;;21.07;;
37303;SDS011;23188;51.188;16.374;2022-10-16T16:27:25;34.30;;;21.37;;
37303;SDS011;23188;51.188;16.374;2022-10-16T16:31:26;28.70;;;19.90;;
37303;SDS011;23188;51.188;16.374;2022-10-16T16:35:29;36.15;;;25.05;;
37303;SDS011;23188;51.188;16.374;2022-10-16T16:39:30;26.93;;;18.15;;
37303;SDS011;23188;51.188;16.374;2022-10-16T16:43:31;16.97;;;15.03;;
37303;SDS011;23188;51.188;16.374;2022-10-16T16:47:33;17.42;;;14.28;;
37303;SDS011;23188;51.188;16.374;2022-10-16T16:51:34;17.20;;;13.48;;
37303;SDS011;23188;51.188;16.374;2022-10-16T16:55:35;12.75;;;10.75;;
37303;SDS011;23188;51.188;16.374;2022-10-16T16:59:36;8.23;;;6.90;;
37303;SDS011;23188;51.188;16.374;2022-10-16T17:03:37;7.03;;;6.33;;
37303;SDS011;23188;51.188;16.374;2022-10-16T17:07:39;7.80;;;6.28;;
37303;SDS011;23188;51.188;16.374;2022-10-16T17:11:41;11.68;;;7.42;;
37303;SDS011;23188;51.188;16.374;2022-10-16T17:15:48;19.67;;;15.23;;
37303;SDS011;23188;51.188;16.374;2022-10-16T17:19:51;28.98;;;22.70;;
37303;SDS011;23188;51.188;16.374;2022-10-16T17:23:53;21.45;;;12.82;;
37303;SDS011;23188;51.188;16.374;2022-10-16T17:27:54;15.35;;;9.90;;
37303;SDS011;23188;51.188;16.374;2022-10-16T17:31:55;12.55;;;10.23;;
37303;SDS011;23188;51.188;16.374;2022-10-16T17:35:56;11.65;;;9.45;;
37303;SDS011;23188;51.188;16.374;2022-10-16T17:39:58;12.05;;;8.78;;
37303;SDS011;23188;51.188;16.374;2022-10-16T17:43:59;10.75;;;8.43;;
37303;SDS011;23188;51.188;16.374;2022-10-16T17:48:01;11.12;;;6.87;;
37303;SDS011;23188;51.188;16.374;2022-10-16T17:52:03;7.10;;;5.50;;
37303;SDS011;23188;51.188;16.374;2022-10-16T17:56:08;6.65;;;5.47;;
37303;SDS011;23188;51.188;16.374;2022-10-16T18:00:13;8.28;;;6.67;;
37303;SDS011;23188;51.188;16.374;2022-10-16T18:04:15;9.08;;;8.13;;
37303;SDS011;23188;51.188;16.374;2022-10-16T18:08:17;13.95;;;10.43;;
37303;SDS011;23188;51.188;16.374;2022-10-16T18:12:18;11.48;;;8.83;;
37303;SDS011;23188;51.188;16.374;2022-10-16T18:16:19;12.47;;;8.75;;
37303;SDS011;23188;51.188;16.374;2022-10-16T18:20:21;12.43;;;9.95;;
37303;SDS011;23188;51.188;16.374;2022-10-16T18:51:16;15.98;;;12.05;;
37303;SDS011;23188;51.188;16.374;2022-10-16T18:55:32;14.98;;;13.10;;
37303;SDS011;23188;51.188;16.374;2022-10-16T18:59:33;14.47;;;12.33;;
37303;SDS011;23188;51.188;16.374;2022-10-16T19:03:35;15.13;;;12.55;;
37303;SDS011;23188;51.188;16.374;2022-10-16T19:07:38;19.50;;;14.53;;
37303;SDS011;23188;51.188;16.374;2022-10-16T19:11:39;20.10;;;16.42;;
37303;SDS011;23188;51.188;16.374;2022-10-16T19:15:41;19.95;;;15.65;;
37303;SDS011;23188;51.188;16.374;2022-10-16T19:19:43;23.67;;;17.27;;
37303;SDS011;23188;51.188;16.374;2022-10-16T19:23:44;17.55;;;15.13;;
37303;SDS011;23188;51.188;16.374;2022-10-16T19:27:46;18.70;;;15.48;;
37303;SDS011;23188;51.188;16.374;2022-10-16T19:31:49;23.50;;;17.52;;
37303;SDS011;23188;51.188;16.374;2022-10-16T19:35:50;20.02;;;17.52;;
37303;SDS011;23188;51.188;16.374;2022-10-16T19:39:51;20.68;;;17.02;;
37303;SDS011;23188;51.188;16.374;2022-10-16T19:43:53;21.90;;;17.60;;
37303;SDS011;23188;51.188;16.374;2022-10-16T19:47:54;22.07;;;17.65;;
37303;SDS011;23188;51.188;16.374;2022-10-16T19:51:55;22.55;;;18.70;;
37303;SDS011;23188;51.188;16.374;2022-10-16T19:55:57;17.17;;;14.73;;
37303;SDS011;23188;51.188;16.374;2022-10-16T19:59:58;16.85;;;14.95;;
37303;SDS011;23188;51.188;16.374;2022-10-16T20:04:00;22.58;;;17.05;;
37303;SDS011;23188;51.188;16.374;2022-10-16T20:08:01;20.27;;;18.12;;
37303;SDS011;23188;51.188;16.374;2022-10-16T20:12:02;26.15;;;17.57;;
37303;SDS011;23188;51.188;16.374;2022-10-16T20:16:04;22.73;;;17.75;;
37303;SDS011;23188;51.188;16.374;2022-10-16T20:20:06;22.52;;;18.25;;
37303;SDS011;23188;51.188;16.374;2022-10-16T20:24:08;22.45;;;18.17;;
37303;SDS011;23188;51.188;16.374;2022-10-16T20:28:10;23.02;;;17.50;;
37303;SDS011;23188;51.188;16.374;2022-10-16T20:32:14;21.47;;;16.87;;
37303;SDS011;23188;51.188;16.374;2022-10-16T20:36:17;24.43;;;19.60;;
37303;SDS011;23188;51.188;16.374;2022-10-16T20:40:20;23.40;;;19.40;;
37303;SDS011;23188;51.188;16.374;2022-10-16T20:44:21;24.32;;;19.98;;
37303;SDS011;23188;51.188;16.374;2022-10-16T20:48:22;25.37;;;17.87;;
37303;SDS011;23188;51.188;16.374;2022-10-16T20:52:24;27.17;;;20.00;;
37303;SDS011;23188;51.188;16.374;2022-10-16T20:56:25;22.98;;;17.40;;
37303;SDS011;23188;51.188;16.374;2022-10-16T21:00:29;23.98;;;20.57;;
37303;SDS011;23188;51.188;16.374;2022-10-16T21:04:30;24.00;;;20.05;;
37303;SDS011;23188;51.188;16.374;2022-10-16T21:08:35;24.77;;;21.95;;
37303;SDS011;23188;51.188;16.374;2022-10-16T21:12:38;27.82;;;20.97;;
37303;SDS011;23188;51.188;16.374;2022-10-16T21:16:40;22.65;;;19.70;;
37303;SDS011;23188;51.188;16.374;2022-10-16T21:20:42;22.00;;;19.62;;
37303;SDS011;23188;51.188;16.374;2022-10-16T21:24:43;21.57;;;19.25;;
37303;SDS011;23188;51.188;16.374;2022-10-16T21:28:44;24.30;;;18.60;;
37303;SDS011;23188;51.188;16.374;2022-10-16T21:32:46;20.92;;;18.30;;
37303;SDS011;23188;51.188;16.374;2022-10-16T21:36:47;25.32;;;20.27;;
37303;SDS011;23188;51.188;16.374;2022-10-16T21:40:48;23.83;;;19.80;;
37303;SDS011;23188;51.188;16.374;2022-10-16T21:44:49;23.32;;;18.75;;
37303;SDS011;23188;51.188;16.374;2022-10-16T21:48:57;22.95;;;17.73;;
37303;SDS011;23188;51.188;16.374;2022-10-16T21:53:00;24.95;;;18.27;;
37303;SDS011;23188;51.188;16.374;2022-10-16T21:57:01;21.25;;;18.30;;
37303;SDS011;23188;51.188;16.374;2022-10-16T22:01:06;26.05;;;17.42;;
37303;SDS011;23188;51.188;16.374;2022-10-16T22:05:09;19.48;;;16.42;;
37303;SDS011;23188;51.188;16.374;2022-10-16T22:09:11;20.32;;;18.12;;
37303;SDS011;23188;51.188;16.374;2022-10-16T22:13:14;22.15;;;17.75;;
37303;SDS011;23188;51.188;16.374;2022-10-16T22:17:15;28.02;;;20.57;;
37303;SDS011;23188;51.188;16.374;2022-10-16T22:21:16;25.00;;;19.95;;
37303;SDS011;23188;51.188;16.374;2022-10-16T22:25:17;24.27;;;20.10;;
37303;SDS011;23188;51.188;16.374;2022-10-16T22:29:18;30.02;;;22.00;;
37303;SDS011;23188;51.188;16.374;2022-10-16T22:33:19;24.23;;;21.23;;
37303;SDS011;23188;51.188;16.374;2022-10-16T22:37:21;21.25;;;18.55;;
37303;SDS011;23188;51.188;16.374;2022-10-16T22:41:22;31.12;;;23.18;;
37303;SDS011;23188;51.188;16.374;2022-10-16T22:45:25;26.30;;;20.32;;
37303;SDS011;23188;51.188;16.374;2022-10-16T22:49:26;28.12;;;21.45;;
37303;SDS011;23188;51.188;16.374;2022-10-16T22:53:28;29.05;;;20.40;;
37303;SDS011;23188;51.188;16.374;2022-10-16T22:57:29;28.25;;;20.50;;
37303;SDS011;23188;51.188;16.374;2022-10-16T23:01:32;29.57;;;21.48;;
37303;SDS011;23188;51.188;16.374;2022-10-16T23:05:37;28.05;;;20.48;;
37303;SDS011;23188;51.188;16.374;2022-10-16T23:09:39;28.85;;;24.30;;
37303;SDS011;23188;51.188;16.374;2022-10-16T23:13:41;25.70;;;20.82;;
37303;SDS011;23188;51.188;16.374;2022-10-16T23:17:44;28.60;;;23.15;;
37303;SDS011;23188;51.188;16.374;2022-10-16T23:21:46;29.35;;;23.10;;
37303;SDS011;23188;51.188;16.374;2022-10-16T23:25:47;23.65;;;20.32;;
37303;SDS011;23188;51.188;16.374;2022-10-16T23:29:48;27.15;;;21.40;;
37303;SDS011;23188;51.188;16.374;2022-10-16T23:33:49;33.02;;;21.42;;
37303;SDS011;23188;51.188;16.374;2022-10-16T23:37:50;30.25;;;23.62;;
37303;SDS011;23188;51.188;16.374;2022-10-16T23:41:51;27.70;;;21.87;;
37303;SDS011;23188;51.188;16.374;2022-10-16T23:45:52;29.63;;;21.55;;
37303;SDS011;23188;51.188;16.374;2022-10-16T23:49:53;25.52;;;22.35;;
37303;SDS011;23188;51.188;16.374;2022-10-16T23:53:54;33.88;;;22.85;;
37303;SDS011;23188;51.188;16.374;2022-10-16T23:57:55;33.25;;;22.73;;
